sensor_id;sensor_type;location;lat;lon;timestamp;pressure;altitude;pressure_sealevel;temperature;humidity
84647;BME280;74876;52.404;16.896;2024-03-22T00:00:10;100902.0;;;9.51;89.22
84647;BME280;74876;52.404;16.896;2024-03-22T00:15:09;100905.0;;;9.41;88.92
84647;BME280;74876;52.404;16.896;2024-03-22T00:30:10;100884.0;;;9.26;88.84
84647;BME280;74876;52.404;16.896;2024-03-22T00:45:10;100869.0;;;9.07;88.48
84647;BME280;74876;52.404;16.896;2024-03-22T01:05:09;100872.0;;;8.92;88.23
84647;BME280;74876;52.404;16.896;2024-03-22T01:20:09;100866.0;;;8.91;88.63
84647;BME280;74876;52.404;16.896;2024-03-22T01:35:09;100871.0;;;8.89;89.34
84647;BME280;74876;52.404;16.896;2024-03-22T01:50:09;100876.0;;;8.76;90.06
84647;BME280;74876;52.404;16.896;2024-03-22T02:05:09;100866.0;;;8.65;90.17
84647;BME280;74876;52.404;16.896;2024-03-22T02:20:10;100845.0;;;8.58;89.65
84647;BME280;74876;52.404;16.896;2024-03-22T02:35:10;100837.0;;;8.51;89.34
84647;BME280;74876;52.404;16.896;2024-03-22T02:50:09;100836.0;;;8.41;88.58
84647;BME280;74876;52.404;16.896;2024-03-22T03:05:10;100838.0;;;8.37;88.05
84647;BME280;74876;52.404;16.896;2024-03-22T03:20:09;100848.0;;;8.03;87.08
84647;BME280;74876;52.404;16.896;2024-03-22T03:35:09;100840.0;;;7.98;86.5
84647;BME280;74876;52.404;16.896;2024-03-22T03:50:09;100846.0;;;7.89;86.42
84647;BME280;74876;52.404;16.896;2024-03-22T04:05:10;100854.0;;;7.71;86.07
84647;BME280;74876;52.404;16.896;2024-03-22T04:25:10;100854.0;;;7.46;85.15
84647;BME280;74876;52.404;16.896;2024-03-22T04:40:09;100833.0;;;7.4;85.25
84647;BME280;74876;52.404;16.896;2024-03-22T04:55:09;100830.0;;;7.39;85.53
84647;BME280;74876;52.404;16.896;2024-03-22T05:10:09;100820.0;;;7.39;85.82
84647;BME280;74876;52.404;16.896;2024-03-22T05:25:09;100815.0;;;7.48;86.11
84647;BME280;74876;52.404;16.896;2024-03-22T05:45:09;100806.0;;;7.46;86.88
84647;BME280;74876;52.404;16.896;2024-03-22T06:00:10;100811.0;;;7.56;86.74
84647;BME280;74876;52.404;16.896;2024-03-22T06:15:10;100800.0;;;7.54;86.45
84647;BME280;74876;52.404;16.896;2024-03-22T06:30:10;100791.0;;;7.65;86.29
84647;BME280;74876;52.404;16.896;2024-03-22T06:45:10;100791.0;;;7.77;85.67
84647;BME280;74876;52.404;16.896;2024-03-22T07:00:10;100768.0;;;7.94;85.94
84647;BME280;74876;52.404;16.896;2024-03-22T07:15:10;100758.0;;;7.94;84.72
84647;BME280;74876;52.404;16.896;2024-03-22T07:35:10;100741.0;;;8.11;83.69
84647;BME280;74876;52.404;16.896;2024-03-22T07:50:09;100729.0;;;8.39;82.24
84647;BME280;74876;52.404;16.896;2024-03-22T08:05:09;100700.0;;;8.55;81.63
84647;BME280;74876;52.404;16.896;2024-03-22T08:25:10;100712.0;;;8.99;78.85
84647;BME280;74876;52.404;16.896;2024-03-22T08:45:09;100708.0;;;9.21;78.93
84647;BME280;74876;52.404;16.896;2024-03-22T09:00:09;100682.0;;;9.52;77.71
84647;BME280;74876;52.404;16.896;2024-03-22T09:15:09;100635.0;;;9.8;76.59
84647;BME280;74876;52.404;16.896;2024-03-22T09:30:09;100637.0;;;10.03;75.88
84647;BME280;74876;52.404;16.896;2024-03-22T09:45:09;100622.0;;;10.55;72.66
84647;BME280;74876;52.404;16.896;2024-03-22T10:00:09;100598.0;;;11.26;71.14
84647;BME280;74876;52.404;16.896;2024-03-22T10:15:10;100570.0;;;11.48;70.24
84647;BME280;74876;52.404;16.896;2024-03-22T10:40:09;100557.0;;;11.14;70.64
84647;BME280;74876;52.404;16.896;2024-03-22T10:55:09;100511.0;;;11.0;71.21
84647;BME280;74876;52.404;16.896;2024-03-22T11:10:09;100516.0;;;10.91;71.12
84647;BME280;74876;52.404;16.896;2024-03-22T11:25:09;100485.0;;;10.76;74.36
84647;BME280;74876;52.404;16.896;2024-03-22T11:40:09;100454.0;;;10.74;75.32
84647;BME280;74876;52.404;16.896;2024-03-22T11:55:10;100440.0;;;11.05;73.67
84647;BME280;74876;52.404;16.896;2024-03-22T12:10:10;100414.0;;;10.96;72.99
84647;BME280;74876;52.404;16.896;2024-03-22T12:25:09;100386.0;;;11.13;73.46
84647;BME280;74876;52.404;16.896;2024-03-22T12:40:09;100374.0;;;11.28;72.48
84647;BME280;74876;52.404;16.896;2024-03-22T12:55:10;100329.0;;;11.27;73.2
84647;BME280;74876;52.404;16.896;2024-03-22T13:10:10;100307.0;;;11.37;70.82
84647;BME280;74876;52.404;16.896;2024-03-22T13:25:10;100299.0;;;11.49;69.78
84647;BME280;74876;52.404;16.896;2024-03-22T13:40:10;100282.0;;;11.73;69.45
84647;BME280;74876;52.404;16.896;2024-03-22T14:00:09;100248.0;;;11.97;68.14
84647;BME280;74876;52.404;16.896;2024-03-22T14:20:09;100196.0;;;12.02;67.74
84647;BME280;74876;52.404;16.896;2024-03-22T14:35:10;100192.0;;;12.13;66.83
84647;BME280;74876;52.404;16.896;2024-03-22T14:50:10;100174.0;;;12.3;65.83
84647;BME280;74876;52.404;16.896;2024-03-22T15:05:10;100171.0;;;12.33;65.7
84647;BME280;74876;52.404;16.896;2024-03-22T15:20:10;100154.0;;;12.1;67.21
84647;BME280;74876;52.404;16.896;2024-03-22T15:35:10;100146.0;;;11.95;69.12
84647;BME280;74876;52.404;16.896;2024-03-22T15:50:10;100126.0;;;11.74;72.6
84647;BME280;74876;52.404;16.896;2024-03-22T16:05:09;100123.0;;;11.43;77.12
84647;BME280;74876;52.404;16.896;2024-03-22T16:20:09;100097.0;;;11.16;79.07
84647;BME280;74876;52.404;16.896;2024-03-22T16:35:10;100101.0;;;11.02;80.23
84647;BME280;74876;52.404;16.896;2024-03-22T16:50:10;100094.0;;;10.92;81.23
84647;BME280;74876;52.404;16.896;2024-03-22T17:05:09;100112.0;;;10.82;83.22
84647;BME280;74876;52.404;16.896;2024-03-22T17:20:10;100118.0;;;10.61;84.49
84647;BME280;74876;52.404;16.896;2024-03-22T17:35:09;100105.0;;;10.41;86.52
84647;BME280;74876;52.404;16.896;2024-03-22T17:55:09;100092.0;;;10.29;88.14
84647;BME280;74876;52.404;16.896;2024-03-22T18:15:10;100082.0;;;10.18;89.39
84647;BME280;74876;52.404;16.896;2024-03-22T18:30:10;100076.0;;;10.16;90.32
84647;BME280;74876;52.404;16.896;2024-03-22T18:45:10;100066.0;;;10.08;90.73
84647;BME280;74876;52.404;16.896;2024-03-22T19:05:09;100057.0;;;9.95;91.83
84647;BME280;74876;52.404;16.896;2024-03-22T19:20:10;100038.0;;;9.88;92.67
84647;BME280;74876;52.404;16.896;2024-03-22T19:35:10;100036.0;;;9.81;93.61
84647;BME280;74876;52.404;16.896;2024-03-22T19:55:10;100012.0;;;9.71;94.91
84647;BME280;74876;52.404;16.896;2024-03-22T20:10:10;100001.0;;;9.64;95.11
